Glen Springs, Kentucky
Current Conditions -  °F | °C
As of 10:15 AM on Wednesday 26 Nov 2014 (Local Time) from KFGX Reporting Station
Clear Clear  
Wind Chill: 28°   Ceiling: Unl
Heat Index: 33°   Visibility: 10mi
Dew Point: 28°   Wind: 5mph
Humidity: 82%   Direction: 360°N
Pressure: 30.13"   Gusts: NA
Location:  38.4929°N, 83.3898°W
Report Text: KFGX 261515Z AUTO 36004KT 10SM CLR 00/M02 A3013 RMK AO2 T00041023
Loading
Personal Weather Stations






























Interactive Weather Map New forecast layout! Learn more

10-Day Weather Forecast

Advertisements
Track Severe Weather on mobile